Terminal Aerodrome Forecast
Issued by NWS

Home | Current Version | Previous Version | Text Only | Print | Product List | Glossary On
Versions: 1 2 3 4 5 6 7 8 9 10 11 12 13 14 15 16 17
000
FTUS41 KGYX 172320
TAFPSM
TAF
KPSM 172320Z 1800/1824 16006KT P6SM SCT100 BKN250
     FM182000 23008KT P6SM BKN100
     FM182200 35006KT P6SM BKN100=

USA.gov is the U.S. government's official web portal to all federal, state and local government web resources and services.